createdAt,value
2018-06-30T00:00:35.596Z,21.90
2018-06-30T00:03:06.454Z,21.90
2018-06-30T00:05:37.369Z,21.90
2018-06-30T00:08:08.184Z,21.80
2018-06-30T00:10:39.034Z,21.70
2018-06-30T00:13:10.074Z,21.60
2018-06-30T00:15:41.405Z,21.50
2018-06-30T00:18:12.274Z,21.50
2018-06-30T00:20:43.057Z,21.40
2018-06-30T00:23:14.057Z,21.30
2018-06-30T00:25:44.909Z,21.30
2018-06-30T00:28:15.908Z,21.20
2018-06-30T00:30:47.148Z,21.20
2018-06-30T00:33:18.344Z,21.10
2018-06-30T00:35:50.278Z,21.10
2018-06-30T00:38:21.373Z,21.10
2018-06-30T00:40:52.230Z,21.00
2018-06-30T00:43:23.786Z,21.00
2018-06-30T00:45:56.260Z,20.90
2018-06-30T00:48:27.074Z,20.80
2018-06-30T00:50:57.956Z,20.90
2018-06-30T00:53:28.792Z,20.90
2018-06-30T00:58:29.969Z,20.80
2018-06-30T01:01:02.638Z,20.70
2018-06-30T01:03:34.342Z,20.70
2018-06-30T01:06:06.365Z,20.70
2018-06-30T01:08:38.222Z,20.70
2018-06-30T01:11:09.229Z,20.60
2018-06-30T01:13:41.858Z,20.60
2018-06-30T01:16:12.774Z,20.60
2018-06-30T01:18:44.543Z,20.60
2018-06-30T01:21:15.473Z,20.50
2018-06-30T01:23:53.894Z,20.40
2018-06-30T01:26:26.389Z,20.40
2018-06-30T01:28:57.327Z,20.40
2018-06-30T01:31:28.288Z,20.40
2018-06-30T01:33:59.239Z,20.20
2018-06-30T01:36:33.341Z,20.10
2018-06-30T01:39:04.781Z,20.10
2018-06-30T01:41:36.841Z,20.00
2018-06-30T01:44:10.993Z,20.00
2018-06-30T01:46:44.937Z,20.00
2018-06-30T01:51:51.387Z,20.00
2018-06-30T01:57:33.475Z,20.00
2018-06-30T02:00:10.247Z,20.00
2018-06-30T02:02:51.329Z,20.00
2018-06-30T02:05:24.361Z,20.00
2018-06-30T02:07:56.089Z,19.90
2018-06-30T02:10:29.963Z,19.90
2018-06-30T02:13:00.848Z,19.80
2018-06-30T02:15:44.126Z,19.70
2018-06-30T02:18:17.253Z,19.50
2018-06-30T02:20:48.024Z,19.30
2018-06-30T02:23:19.659Z,19.20
2018-06-30T02:25:50.090Z,19.00
2018-06-30T02:31:27.343Z,18.80
2018-06-30T02:33:57.987Z,18.80
2018-06-30T02:36:28.681Z,18.80
2018-06-30T02:39:00.812Z,18.80
2018-06-30T02:41:31.465Z,18.90
2018-06-30T02:44:02.077Z,19.00
2018-06-30T02:46:32.866Z,19.00
2018-06-30T02:49:05.027Z,19.10
2018-06-30T02:51:35.843Z,19.00
2018-06-30T02:54:06.915Z,19.00
2018-06-30T03:02:15.250Z,19.00
2018-06-30T03:04:46.926Z,18.90
2018-06-30T03:10:24.655Z,18.70
2018-06-30T03:13:02.974Z,18.60
2018-06-30T03:15:34.419Z,18.60
2018-06-30T03:18:05.667Z,18.50
2018-06-30T03:23:45.467Z,18.50
2018-06-30T03:26:17.182Z,18.40
2018-06-30T03:28:47.800Z,18.30
2018-06-30T03:31:18.418Z,18.20
2018-06-30T03:33:49.032Z,18.20
2018-06-30T03:36:21.237Z,18.20
2018-06-30T03:38:51.956Z,18.20
2018-06-30T03:41:28.822Z,18.10
2018-06-30T03:44:01.860Z,18.10
2018-06-30T03:46:32.601Z,18.00
2018-06-30T03:49:03.309Z,17.90
2018-06-30T03:51:34.021Z,17.80
2018-06-30T03:54:06.066Z,17.80
2018-06-30T03:56:40.042Z,17.70
2018-06-30T03:59:16.424Z,17.70
2018-06-30T04:01:53.331Z,17.70
2018-06-30T04:04:26.037Z,17.70
2018-06-30T04:06:59.482Z,17.70
2018-06-30T04:12:50.016Z,17.80
2018-06-30T04:16:07.804Z,17.80
2018-06-30T04:18:42.020Z,17.80
2018-06-30T04:21:14.947Z,17.80
2018-06-30T04:23:45.655Z,17.70
2018-06-30T04:26:16.553Z,17.60
2018-06-30T04:28:47.503Z,17.50
2018-06-30T04:31:19.602Z,17.40
2018-06-30T04:33:53.184Z,17.30
2018-06-30T04:36:24.026Z,17.20
2018-06-30T04:38:54.718Z,17.20
2018-06-30T04:41:25.734Z,17.20
2018-06-30T04:43:57.481Z,17.20
2018-06-30T04:46:28.388Z,17.10
2018-06-30T04:49:00.938Z,17.20
2018-06-30T04:51:33.539Z,17.10
2018-06-30T04:54:06.336Z,17.10
2018-06-30T04:59:13.457Z,17.10
2018-06-30T05:01:47.978Z,17.10
2018-06-30T05:04:20.935Z,17.10
2018-06-30T05:06:51.775Z,17.10
2018-06-30T05:09:24.268Z,17.00
2018-06-30T05:11:56.826Z,17.10
2018-06-30T05:14:29.465Z,17.10
2018-06-30T05:17:02.060Z,17.10
2018-06-30T05:19:34.741Z,17.10
2018-06-30T05:22:07.604Z,17.20
2018-06-30T05:24:40.135Z,17.20
2018-06-30T05:27:12.842Z,17.10
2018-06-30T05:29:45.411Z,17.20
2018-06-30T05:32:18.030Z,17.10
2018-06-30T05:34:50.631Z,17.20
2018-06-30T05:37:23.174Z,17.20
2018-06-30T05:39:55.835Z,17.20
2018-06-30T05:42:28.316Z,17.20
2018-06-30T05:45:00.946Z,17.20
2018-06-30T05:47:33.508Z,17.20
2018-06-30T05:50:06.181Z,17.20
2018-06-30T05:52:38.868Z,17.30
2018-06-30T05:55:12.239Z,17.30
2018-06-30T05:57:45.299Z,17.30
2018-06-30T06:00:17.821Z,17.30
2018-06-30T06:02:50.577Z,17.40
2018-06-30T06:05:23.176Z,17.40
2018-06-30T06:07:55.799Z,17.40
2018-06-30T06:10:28.393Z,17.40
2018-06-30T06:13:00.898Z,17.40
2018-06-30T06:15:33.506Z,17.40
2018-06-30T06:18:06.066Z,17.40
2018-06-30T06:20:39.012Z,17.40
2018-06-30T06:23:11.638Z,17.40
2018-06-30T06:25:45.295Z,17.50
2018-06-30T06:28:18.104Z,17.50
2018-06-30T06:30:50.718Z,17.50
2018-06-30T06:33:23.239Z,17.40
2018-06-30T06:35:55.722Z,17.40
2018-06-30T06:38:28.377Z,17.30
2018-06-30T06:41:00.990Z,17.40
2018-06-30T06:43:33.485Z,17.40
2018-06-30T06:46:06.140Z,17.40
2018-06-30T06:48:38.842Z,17.40
2018-06-30T06:51:11.296Z,17.40
2018-06-30T06:53:44.019Z,17.40
2018-06-30T06:58:48.566Z,17.50
2018-06-30T07:01:21.084Z,17.50
2018-06-30T07:03:53.714Z,17.50
2018-06-30T07:06:26.268Z,17.60
2018-06-30T07:08:58.972Z,17.50
2018-06-30T07:11:32.677Z,17.50
2018-06-30T07:14:05.424Z,17.40
2018-06-30T07:16:38.215Z,17.40
2018-06-30T07:22:41.989Z,17.30
2018-06-30T07:25:14.289Z,17.30
2018-06-30T07:27:46.543Z,17.20
2018-06-30T07:30:19.242Z,17.10
2018-06-30T07:32:51.798Z,17.20
2018-06-30T07:35:24.630Z,17.20
2018-06-30T07:37:56.906Z,17.20
2018-06-30T07:43:00.382Z,17.20
2018-06-30T07:45:32.621Z,17.20
2018-06-30T07:48:05.287Z,17.30
2018-06-30T07:50:37.630Z,17.30
2018-06-30T07:53:10.081Z,17.30
2018-06-30T07:55:42.401Z,17.20
2018-06-30T07:58:14.860Z,17.10
2018-06-30T08:00:47.012Z,17.00
2018-06-30T08:03:20.385Z,17.00
2018-06-30T08:05:53.065Z,16.90
2018-06-30T08:11:57.057Z,16.90
2018-06-30T08:14:29.523Z,16.90
2018-06-30T08:17:02.013Z,16.90
2018-06-30T08:19:34.478Z,16.90
2018-06-30T08:22:07.133Z,16.90
2018-06-30T08:27:10.874Z,16.90
2018-06-30T08:29:43.521Z,16.90
2018-06-30T08:32:16.153Z,17.00
2018-06-30T08:34:48.789Z,17.00
2018-06-30T08:37:21.356Z,17.00
2018-06-30T08:39:53.900Z,17.00
2018-06-30T08:42:26.697Z,17.00
2018-06-30T08:44:59.063Z,17.00
2018-06-30T08:47:31.517Z,17.00
2018-06-30T08:50:04.115Z,16.90
2018-06-30T08:52:36.427Z,16.90
2018-06-30T08:55:08.950Z,16.80
2018-06-30T08:57:41.372Z,16.80
2018-06-30T09:00:14.088Z,16.80
2018-06-30T09:05:54.289Z,16.80
2018-06-30T09:08:26.845Z,16.80
2018-06-30T09:10:59.329Z,16.80
2018-06-30T09:13:31.701Z,16.80
2018-06-30T09:16:04.060Z,16.80
2018-06-30T09:18:36.659Z,16.70
2018-06-30T09:21:09.259Z,16.70
2018-06-30T09:27:32.494Z,16.60
2018-06-30T09:30:04.792Z,16.60
2018-06-30T09:32:36.989Z,16.50
2018-06-30T09:38:31.580Z,16.60
2018-06-30T09:41:05.846Z,16.60
2018-06-30T09:43:39.134Z,16.60
2018-06-30T09:46:12.072Z,16.60
2018-06-30T09:48:44.955Z,16.50
2018-06-30T09:51:17.656Z,16.50
2018-06-30T09:53:50.440Z,16.40
2018-06-30T09:56:23.158Z,16.40
2018-06-30T09:58:55.933Z,16.40
2018-06-30T10:01:28.885Z,16.30
2018-06-30T10:04:02.369Z,16.30
2018-06-30T10:06:35.614Z,16.30
2018-06-30T10:12:38.875Z,16.20
2018-06-30T10:15:11.810Z,16.10
2018-06-30T10:17:44.344Z,16.20
2018-06-30T10:23:33.521Z,16.10
2018-06-30T10:26:05.572Z,16.20
2018-06-30T10:28:37.748Z,16.10
2018-06-30T10:31:09.917Z,16.10
2018-06-30T10:33:42.263Z,16.10
2018-06-30T10:36:14.490Z,16.10
2018-06-30T10:41:17.386Z,16.10
2018-06-30T10:43:49.585Z,16.10
2018-06-30T10:46:21.755Z,16.10
2018-06-30T10:48:53.932Z,16.20
2018-06-30T10:51:26.208Z,16.10
2018-06-30T10:53:58.234Z,16.10
2018-06-30T10:59:03.435Z,16.00
2018-06-30T11:01:36.278Z,15.90
2018-06-30T11:04:09.305Z,15.90
2018-06-30T11:06:41.879Z,15.90
2018-06-30T11:09:14.865Z,15.80
2018-06-30T11:11:47.902Z,15.80
2018-06-30T11:14:20.370Z,15.80
2018-06-30T11:16:52.406Z,15.90
2018-06-30T11:19:24.564Z,15.90
2018-06-30T11:21:56.860Z,15.90
2018-06-30T11:24:28.873Z,16.00
2018-06-30T11:27:01.788Z,16.00
2018-06-30T11:29:34.092Z,16.00
2018-06-30T11:32:06.856Z,16.00
2018-06-30T11:34:39.194Z,16.00
2018-06-30T11:37:11.311Z,16.00
2018-06-30T11:39:43.463Z,16.00
2018-06-30T11:42:15.570Z,16.00
2018-06-30T11:44:47.673Z,16.00
2018-06-30T11:47:19.843Z,16.00
2018-06-30T11:49:52.252Z,16.10
2018-06-30T11:52:24.554Z,16.00
2018-06-30T11:54:57.234Z,16.10
2018-06-30T11:57:29.426Z,16.10
2018-06-30T12:00:01.640Z,16.10
2018-06-30T12:02:33.905Z,16.10
2018-06-30T12:05:06.875Z,16.20
2018-06-30T12:07:39.052Z,16.20
2018-06-30T12:10:11.822Z,16.20
2018-06-30T12:12:44.064Z,16.20
2018-06-30T12:15:16.143Z,16.20
2018-06-30T12:17:49.023Z,16.30
2018-06-30T12:20:24.230Z,16.30
2018-06-30T12:22:57.161Z,16.40
2018-06-30T12:25:29.531Z,16.40
2018-06-30T12:28:01.737Z,16.40
2018-06-30T12:30:34.038Z,16.40
2018-06-30T12:33:08.703Z,16.40
2018-06-30T12:35:43.071Z,16.50
2018-06-30T12:38:15.303Z,16.60
2018-06-30T12:44:08.905Z,16.80
2018-06-30T12:46:44.113Z,17.00
2018-06-30T12:49:17.829Z,17.20
2018-06-30T12:52:14.250Z,17.50
2018-06-30T12:54:46.775Z,17.70
2018-06-30T12:57:19.256Z,17.80
2018-06-30T12:59:51.804Z,17.80
2018-06-30T13:02:24.249Z,17.80
2018-06-30T13:04:56.721Z,17.90
2018-06-30T13:07:29.119Z,18.10
2018-06-30T13:10:01.471Z,18.20
2018-06-30T13:12:33.995Z,18.40
2018-06-30T13:15:06.486Z,18.70
2018-06-30T13:21:03.090Z,18.80
2018-06-30T13:23:39.430Z,19.20
2018-06-30T13:29:51.401Z,19.70
2018-06-30T13:32:24.540Z,20.20
2018-06-30T13:34:57.386Z,20.50
2018-06-30T13:37:30.429Z,20.20
2018-06-30T13:40:03.315Z,20.50
2018-06-30T13:42:36.169Z,20.50
2018-06-30T13:45:11.783Z,20.70
2018-06-30T13:47:44.525Z,21.00
2018-06-30T13:50:17.279Z,20.60
2018-06-30T13:53:13.807Z,20.60
2018-06-30T13:55:46.121Z,20.80
2018-06-30T13:58:18.573Z,20.90
2018-06-30T14:00:50.830Z,20.60
2018-06-30T14:06:44.506Z,20.10
2018-06-30T14:09:16.747Z,20.50
2018-06-30T14:11:48.957Z,20.10
2018-06-30T14:16:52.113Z,19.80
2018-06-30T14:19:24.350Z,20.30
2018-06-30T14:21:56.526Z,20.40
2018-06-30T14:24:28.721Z,20.50
2018-06-30T14:27:00.816Z,21.00
2018-06-30T14:29:33.140Z,20.80
2018-06-30T14:32:05.554Z,20.30
2018-06-30T14:34:37.816Z,20.80
2018-06-30T14:37:10.026Z,21.60
2018-06-30T14:39:42.095Z,21.90
2018-06-30T14:42:14.281Z,22.70
2018-06-30T14:44:46.398Z,22.80
2018-06-30T14:47:18.568Z,23.90
2018-06-30T14:49:50.777Z,24.20
2018-06-30T14:52:22.989Z,23.50
2018-06-30T14:54:55.405Z,24.00
2018-06-30T14:57:27.630Z,24.20
2018-06-30T14:59:59.790Z,25.00
2018-06-30T15:02:31.985Z,24.40
2018-06-30T15:08:25.506Z,23.60
2018-06-30T15:10:57.561Z,24.50
2018-06-30T15:13:29.618Z,24.40
2018-06-30T15:16:01.828Z,24.60
2018-06-30T15:18:33.960Z,24.30
2018-06-30T15:21:06.034Z,24.20
2018-06-30T15:26:59.699Z,24.00
2018-06-30T15:29:32.119Z,23.40
2018-06-30T15:32:04.546Z,23.80
2018-06-30T15:34:36.946Z,24.00
2018-06-30T15:37:09.353Z,25.00
2018-06-30T15:39:41.822Z,24.50
2018-06-30T15:42:14.500Z,24.80
2018-06-30T15:44:46.909Z,24.80
2018-06-30T15:47:19.308Z,24.40
2018-06-30T15:49:51.663Z,24.40
2018-06-30T15:54:55.065Z,24.60
2018-06-30T15:57:27.384Z,24.60
2018-06-30T15:59:59.711Z,25.70
2018-06-30T16:02:32.154Z,25.80
2018-06-30T16:05:36.758Z,26.20
2018-06-30T16:08:09.644Z,26.20
2018-06-30T16:10:42.114Z,25.80
2018-06-30T16:13:14.632Z,25.50
2018-06-30T16:15:45.345Z,25.60
2018-06-30T16:18:25.954Z,25.70
2018-06-30T16:20:59.636Z,25.80
2018-06-30T16:23:34.402Z,25.70
2018-06-30T16:26:05.312Z,25.50
2018-06-30T16:28:36.180Z,25.60
2018-06-30T16:31:07.545Z,25.50
2018-06-30T16:36:31.142Z,26.00
2018-06-30T16:39:04.441Z,26.60
2018-06-30T16:41:34.946Z,26.60
2018-06-30T16:44:09.520Z,26.90
2018-06-30T16:46:41.979Z,27.30
2018-06-30T16:49:14.375Z,27.40
2018-06-30T16:51:44.970Z,26.70
2018-06-30T16:54:15.462Z,26.50
2018-06-30T16:56:46.161Z,25.80
2018-06-30T16:59:16.759Z,26.20
2018-06-30T17:01:47.365Z,25.60
2018-06-30T17:04:17.909Z,24.90
2018-06-30T17:06:48.510Z,24.30
2018-06-30T17:09:20.158Z,24.80
2018-06-30T17:11:50.707Z,25.20
2018-06-30T17:14:21.171Z,25.10
2018-06-30T17:16:51.807Z,24.90
2018-06-30T17:19:27.794Z,25.20
2018-06-30T17:22:00.029Z,25.70
2018-06-30T17:27:03.283Z,25.30
2018-06-30T17:29:35.001Z,25.30
2018-06-30T17:32:06.613Z,26.20
2018-06-30T17:34:37.214Z,27.10
2018-06-30T17:37:08.635Z,27.30
2018-06-30T17:39:40.901Z,26.80
2018-06-30T17:42:19.777Z,27.20
2018-06-30T17:45:06.305Z,27.20
2018-06-30T17:47:39.207Z,26.70
2018-06-30T17:50:09.824Z,27.00
2018-06-30T17:52:51.428Z,26.80
2018-06-30T17:55:23.927Z,27.60
2018-06-30T17:57:56.975Z,27.00
2018-06-30T18:00:30.834Z,27.30
2018-06-30T18:03:01.391Z,27.60
2018-06-30T18:05:45.814Z,27.40
2018-06-30T18:08:16.443Z,28.20
2018-06-30T18:10:46.910Z,28.40
2018-06-30T18:16:33.546Z,27.40
2018-06-30T18:19:07.326Z,27.80
2018-06-30T18:25:01.781Z,27.90
2018-06-30T18:27:40.675Z,28.30
2018-06-30T18:30:15.158Z,27.70
2018-06-30T18:35:57.337Z,27.90
2018-06-30T18:38:37.097Z,28.00
2018-06-30T18:41:19.695Z,27.00
2018-06-30T18:44:01.873Z,26.90
2018-06-30T18:46:39.681Z,26.90
2018-06-30T18:49:18.446Z,27.00
2018-06-30T18:51:53.547Z,27.50
2018-06-30T18:54:29.560Z,27.40
2018-06-30T18:57:10.938Z,27.30
2018-06-30T18:59:53.242Z,28.00
2018-06-30T19:02:31.928Z,28.80
2018-06-30T19:05:13.874Z,27.80
2018-06-30T19:07:56.955Z,26.40
2018-06-30T19:10:27.657Z,25.90
2018-06-30T19:13:01.965Z,26.50
2018-06-30T19:15:47.049Z,26.00
2018-06-30T19:18:27.027Z,26.40
2018-06-30T19:21:03.845Z,26.20
2018-06-30T19:23:41.961Z,25.50
2018-06-30T19:26:22.451Z,25.00
2018-06-30T19:29:02.858Z,25.40
2018-06-30T19:31:35.365Z,26.00
2018-06-30T19:34:09.559Z,26.60
2018-06-30T19:36:41.410Z,27.30
2018-06-30T19:39:14.565Z,26.80
2018-06-30T19:41:48.721Z,27.10
2018-06-30T19:44:21.009Z,26.90
2018-06-30T19:46:53.465Z,27.10
2018-06-30T19:49:26.588Z,26.80
2018-06-30T19:51:59.348Z,26.60
2018-06-30T19:54:30.029Z,26.40
2018-06-30T20:00:09.008Z,26.00
2018-06-30T20:02:39.900Z,26.40
2018-06-30T20:05:15.380Z,26.90
2018-06-30T20:07:50.655Z,27.30
2018-06-30T20:10:21.303Z,27.20
2018-06-30T20:13:07.055Z,26.80
2018-06-30T20:15:39.031Z,27.50
2018-06-30T20:18:11.437Z,27.40
2018-06-30T20:20:47.942Z,26.90
2018-06-30T20:23:19.824Z,26.90
2018-06-30T20:25:56.800Z,26.40
2018-06-30T20:28:28.054Z,26.30
2018-06-30T20:30:59.715Z,26.10
2018-06-30T20:33:30.556Z,26.20
2018-06-30T20:36:04.422Z,26.40
2018-06-30T20:38:35.934Z,26.20
2018-06-30T20:41:06.585Z,26.00
2018-06-30T20:43:37.333Z,26.40
2018-06-30T20:46:08.194Z,26.20
2018-06-30T20:48:39.608Z,26.40
2018-06-30T20:51:10.214Z,25.90
2018-06-30T20:53:42.128Z,25.70
2018-06-30T20:56:12.986Z,26.00
2018-06-30T20:58:43.600Z,26.30
2018-06-30T21:01:14.246Z,26.80
2018-06-30T21:03:45.521Z,26.30
2018-06-30T21:06:16.343Z,26.20
2018-06-30T21:08:48.759Z,25.80
2018-06-30T21:11:20.386Z,25.80
2018-06-30T21:13:51.020Z,25.50
2018-06-30T21:16:22.762Z,25.40
2018-06-30T21:19:02.633Z,25.50
2018-06-30T21:21:39.392Z,25.70
2018-06-30T21:24:09.991Z,25.50
2018-06-30T21:26:42.383Z,25.50
2018-06-30T21:29:15.837Z,25.80
2018-06-30T21:31:48.157Z,25.60
2018-06-30T21:34:21.682Z,25.80
2018-06-30T21:36:54.694Z,26.10
2018-06-30T21:39:25.430Z,25.50
2018-06-30T21:41:57.068Z,25.60
2018-06-30T21:44:27.613Z,25.60
2018-06-30T21:47:02.905Z,25.50
2018-06-30T21:49:34.147Z,25.70
2018-06-30T21:52:06.506Z,25.60
2018-06-30T21:54:37.231Z,25.50
2018-06-30T21:57:07.831Z,25.30
2018-06-30T21:59:40.235Z,24.90
2018-06-30T22:02:11.085Z,25.00
2018-06-30T22:04:41.803Z,25.10
2018-06-30T22:07:12.419Z,25.00
2018-06-30T22:09:43.306Z,25.10
2018-06-30T22:12:14.093Z,25.10
2018-06-30T22:14:46.461Z,25.20
2018-06-30T22:17:18.924Z,25.40
2018-06-30T22:19:51.836Z,25.60
2018-06-30T22:22:24.384Z,25.30
2018-06-30T22:28:16.413Z,25.10
2018-06-30T22:30:49.277Z,25.00
2018-06-30T22:33:22.263Z,25.20
2018-06-30T22:35:54.353Z,24.80
2018-06-30T22:38:28.215Z,24.70
2018-06-30T22:41:01.398Z,24.80
2018-06-30T22:43:36.986Z,24.70
2018-06-30T22:46:09.515Z,24.80
2018-06-30T22:48:44.798Z,24.80
2018-06-30T22:51:21.879Z,24.60
2018-06-30T22:53:55.415Z,24.70
2018-06-30T22:56:34.470Z,24.50
2018-06-30T22:59:12.511Z,24.50
2018-06-30T23:01:46.262Z,24.40
2018-06-30T23:04:19.213Z,24.60
2018-06-30T23:06:50.231Z,24.70
2018-06-30T23:12:39.292Z,23.90
2018-06-30T23:15:11.960Z,23.90
2018-06-30T23:17:43.135Z,23.80
2018-06-30T23:20:14.250Z,23.70
2018-06-30T23:23:02.882Z,23.40
2018-06-30T23:25:36.103Z,23.40
2018-06-30T23:28:07.134Z,23.40
2018-06-30T23:30:39.890Z,23.30
2018-06-30T23:33:13.287Z,23.00
2018-06-30T23:35:48.280Z,23.00
2018-06-30T23:38:21.040Z,22.80
2018-06-30T23:40:53.579Z,22.80
2018-06-30T23:43:26.385Z,22.80
2018-06-30T23:45:59.029Z,22.80
2018-06-30T23:48:31.757Z,22.70
2018-06-30T23:51:04.452Z,22.70
2018-06-30T23:53:37.229Z,22.60
2018-06-30T23:56:10.036Z,22.50
2018-06-30T23:58:42.714Z,22.40
